createdAt,value
2022-09-21T00:01:17.662Z,101372.06
2022-09-21T00:03:44.966Z,101372.41
2022-09-21T00:06:15.903Z,101379.31
2022-09-21T00:08:43.220Z,101374.38
2022-09-21T00:11:34.208Z,101377.22
2022-09-21T00:14:04.542Z,101380.22
2022-09-21T00:16:32.065Z,101376.63
2022-09-21T00:18:59.697Z,101383.38
2022-09-21T00:21:27.902Z,101381.41
2022-09-21T00:23:55.000Z,101384.91
2022-09-21T00:26:23.962Z,101392.00
2022-09-21T00:28:59.250Z,101387.81
2022-09-21T00:31:27.683Z,101391.78
2022-09-21T00:33:54.853Z,101393.75
2022-09-21T00:36:23.693Z,101396.22
2022-09-21T00:38:52.654Z,101392.22
2022-09-21T00:41:19.868Z,101393.56
2022-09-21T00:43:49.526Z,101391.47
2022-09-21T00:46:27.340Z,101394.44
2022-09-21T00:48:54.388Z,101391.16
2022-09-21T00:51:21.569Z,101391.09
2022-09-21T00:53:53.192Z,101393.41
2022-09-21T00:56:20.256Z,101393.75
2022-09-21T00:58:50.990Z,101389.31
2022-09-21T01:01:18.859Z,101390.75
2022-09-21T01:03:50.894Z,101387.13
2022-09-21T01:06:20.184Z,101386.94
2022-09-21T01:08:52.676Z,101395.09
2022-09-21T01:11:59.977Z,101395.19
2022-09-21T01:14:53.343Z,101398.63
2022-09-21T01:17:56.200Z,101401.44
2022-09-21T01:21:11.214Z,101395.94
2022-09-21T01:23:45.898Z,101397.88
2022-09-21T01:26:34.504Z,101389.16
2022-09-21T01:29:06.870Z,101393.53
2022-09-21T01:31:41.951Z,101391.28
2022-09-21T01:34:19.841Z,101395.31
2022-09-21T01:36:49.879Z,101394.94
2022-09-21T01:39:19.083Z,101399.72
2022-09-21T01:41:47.770Z,101399.94
2022-09-21T01:44:20.758Z,101404.34
2022-09-21T01:46:48.756Z,101398.34
2022-09-21T01:49:19.903Z,101398.81
2022-09-21T01:51:54.276Z,101399.53
2022-09-21T01:54:45.464Z,101394.16
2022-09-21T01:57:21.197Z,101404.41
2022-09-21T01:59:54.397Z,101401.38
2022-09-21T02:02:44.245Z,101397.66
2022-09-21T02:05:11.754Z,101404.63
2022-09-21T02:07:39.576Z,101400.13
2022-09-21T02:10:10.330Z,101404.47
2022-09-21T02:12:37.580Z,101395.78
2022-09-21T02:15:04.728Z,101398.81
2022-09-21T02:17:44.197Z,101395.31
2022-09-21T02:20:23.789Z,101400.78
2022-09-21T02:23:17.685Z,101393.78
2022-09-21T02:25:59.195Z,101405.56
2022-09-21T02:28:28.995Z,101398.47
2022-09-21T02:31:13.988Z,101396.94
2022-09-21T02:33:59.484Z,101395.31
2022-09-21T02:36:38.551Z,101393.53
2022-09-21T02:39:13.625Z,101397.03
2022-09-21T02:42:00.049Z,101393.31
2022-09-21T02:44:45.648Z,101391.69
2022-09-21T02:47:31.416Z,101402.44
2022-09-21T02:50:16.380Z,101399.75
2022-09-21T02:52:44.387Z,101403.03
2022-09-21T02:55:13.224Z,101400.84
2022-09-21T02:57:40.955Z,101401.69
2022-09-21T03:00:08.441Z,101399.16
2022-09-21T03:02:37.467Z,101394.38
2022-09-21T03:05:05.105Z,101394.16
2022-09-21T03:07:32.532Z,101395.50
2022-09-21T03:09:59.188Z,101390.13
2022-09-21T03:12:26.778Z,101394.56
2022-09-21T03:14:53.556Z,101388.38
2022-09-21T03:17:20.238Z,101402.97
2022-09-21T03:19:46.934Z,101395.97
2022-09-21T03:22:13.562Z,101392.41
2022-09-21T03:24:46.178Z,101392.50
2022-09-21T03:27:18.487Z,101390.91
2022-09-21T03:29:45.840Z,101391.94
2022-09-21T03:32:13.728Z,101399.47
2022-09-21T03:34:40.883Z,101414.66
2022-09-21T03:37:09.031Z,101405.06
2022-09-21T03:39:36.662Z,101412.19
2022-09-21T03:42:04.130Z,101404.41
2022-09-21T03:44:30.968Z,101396.09
2022-09-21T03:46:58.202Z,101407.09
2022-09-21T03:49:25.159Z,101402.91
2022-09-21T03:51:51.767Z,101409.63
2022-09-21T03:54:18.438Z,101408.59
2022-09-21T03:56:45.061Z,101406.88
2022-09-21T03:59:14.321Z,101410.44
2022-09-21T04:01:42.206Z,101406.78
2022-09-21T04:04:09.198Z,101409.44
2022-09-21T04:06:36.473Z,101416.44
2022-09-21T04:09:03.553Z,101416.06
2022-09-21T04:11:32.403Z,101407.75
2022-09-21T04:13:59.825Z,101406.97
2022-09-21T04:16:27.386Z,101410.69
2022-09-21T04:18:54.467Z,101420.63
2022-09-21T04:21:22.195Z,101418.00
2022-09-21T04:23:49.872Z,101424.94
2022-09-21T04:26:23.045Z,101425.63
2022-09-21T04:28:50.646Z,101419.41
2022-09-21T04:31:17.749Z,101419.28
2022-09-21T04:33:44.957Z,101417.84
2022-09-21T04:36:11.590Z,101427.75
2022-09-21T04:38:38.323Z,101429.81
2022-09-21T04:41:05.046Z,101427.31
2022-09-21T04:43:31.680Z,101431.47
2022-09-21T04:45:58.524Z,101428.97
2022-09-21T04:48:25.109Z,101432.47
2022-09-21T04:50:51.744Z,101438.09
2022-09-21T04:53:18.386Z,101435.22
2022-09-21T04:55:46.246Z,101433.13
2022-09-21T04:58:12.959Z,101440.78
2022-09-21T05:00:39.613Z,101446.56
2022-09-21T05:03:06.408Z,101444.75
2022-09-21T05:05:33.252Z,101446.59
2022-09-21T05:07:59.969Z,101447.41
2022-09-21T05:10:26.840Z,101457.53
2022-09-21T05:12:53.517Z,101455.22
2022-09-21T05:15:21.916Z,101456.69
2022-09-21T05:17:48.622Z,101453.38
2022-09-21T05:20:15.234Z,101453.13
2022-09-21T05:22:41.869Z,101455.22
2022-09-21T05:25:09.369Z,101459.59
2022-09-21T05:27:37.460Z,101457.50
2022-09-21T05:30:05.779Z,101464.69
2022-09-21T05:33:17.477Z,101465.69
2022-09-21T05:36:02.993Z,101465.91
2022-09-21T05:38:29.967Z,101465.31
2022-09-21T05:40:56.995Z,101456.91
2022-09-21T05:43:23.885Z,101469.56
2022-09-21T05:45:56.942Z,101469.50
2022-09-21T05:48:37.323Z,101468.88
2022-09-21T05:51:14.072Z,101477.75
2022-09-21T05:53:52.795Z,101478.41
2022-09-21T05:56:41.433Z,101478.00
2022-09-21T05:59:27.987Z,101478.66
2022-09-21T06:02:07.258Z,101480.69
2022-09-21T06:04:34.228Z,101482.16
2022-09-21T06:07:00.935Z,101492.66
2022-09-21T06:09:27.912Z,101491.03
2022-09-21T06:11:54.554Z,101496.41
2022-09-21T06:14:25.482Z,101489.56
2022-09-21T06:16:53.062Z,101496.59
2022-09-21T06:19:19.869Z,101499.44
2022-09-21T06:21:46.523Z,101503.78
2022-09-21T06:24:13.156Z,101501.53
2022-09-21T06:26:39.791Z,101502.75
2022-09-21T06:29:06.541Z,101501.63
2022-09-21T06:31:33.516Z,101506.97
2022-09-21T06:34:00.585Z,101505.72
2022-09-21T06:36:27.331Z,101505.16
2022-09-21T06:38:54.143Z,101512.19
2022-09-21T06:41:21.535Z,101508.88
2022-09-21T06:43:48.702Z,101510.28
2022-09-21T06:46:15.585Z,101507.53
2022-09-21T06:48:42.399Z,101504.03
2022-09-21T06:51:10.136Z,101503.91
2022-09-21T06:53:36.788Z,101512.03
2022-09-21T06:56:10.311Z,101517.50
2022-09-21T06:58:37.686Z,101516.56
2022-09-21T07:01:14.056Z,101522.41
2022-09-21T07:03:42.208Z,101520.06
2022-09-21T07:06:15.559Z,101514.31
2022-09-21T07:11:29.452Z,101515.09
2022-09-21T07:13:56.922Z,101519.72
2022-09-21T07:16:24.192Z,101515.66
2022-09-21T07:18:50.909Z,101520.97
2022-09-21T07:21:17.555Z,101527.28
2022-09-21T07:23:44.306Z,101521.41
2022-09-21T07:26:13.449Z,101529.16
2022-09-21T07:28:40.715Z,101526.16
2022-09-21T07:31:13.955Z,101532.25
2022-09-21T07:33:41.703Z,101526.16
2022-09-21T07:36:12.004Z,101529.78
2022-09-21T07:38:41.708Z,101525.66
2022-09-21T07:41:10.391Z,101536.41
2022-09-21T07:43:39.404Z,101532.31
2022-09-21T07:46:11.258Z,101529.13
2022-09-21T07:48:37.994Z,101526.59
2022-09-21T07:51:06.750Z,101528.91
2022-09-21T07:53:34.627Z,101528.34
2022-09-21T07:56:03.635Z,101527.53
2022-09-21T07:58:49.465Z,101526.34
2022-09-21T08:01:16.212Z,101525.06
2022-09-21T08:03:42.967Z,101523.78
2022-09-21T08:06:09.898Z,101525.53
2022-09-21T08:08:37.815Z,101523.53
2022-09-21T08:11:05.702Z,101526.91
2022-09-21T08:13:32.742Z,101522.31
2022-09-21T08:16:03.108Z,101523.38
2022-09-21T08:18:30.621Z,101520.91
2022-09-21T08:21:00.222Z,101519.72
2022-09-21T08:23:30.629Z,101528.50
2022-09-21T08:26:07.886Z,101523.19
2022-09-21T08:28:38.676Z,101533.25
2022-09-21T08:31:08.658Z,101532.81
2022-09-21T08:33:35.419Z,101526.22
2022-09-21T08:36:04.268Z,101531.41
2022-09-21T08:38:35.860Z,101534.50
2022-09-21T08:41:30.120Z,101529.13
2022-09-21T08:44:04.520Z,101539.25
2022-09-21T08:46:34.635Z,101537.53
2022-09-21T08:49:11.654Z,101534.44
2022-09-21T08:51:45.244Z,101538.50
2022-09-21T08:54:25.258Z,101527.91
2022-09-21T08:57:05.075Z,101534.38
2022-09-21T08:59:33.940Z,101525.09
2022-09-21T09:02:26.668Z,101516.72
2022-09-21T09:05:06.648Z,101528.56
2022-09-21T09:08:10.143Z,101524.78
2022-09-21T09:10:58.853Z,101518.50
2022-09-21T09:13:58.947Z,101517.94
2022-09-21T09:16:31.592Z,101510.44
2022-09-21T09:19:09.825Z,101512.88
2022-09-21T09:21:41.643Z,101510.56
2022-09-21T09:24:17.390Z,101503.66
2022-09-21T09:26:55.984Z,101513.88
2022-09-21T09:29:49.466Z,101509.50
2022-09-21T09:32:18.328Z,101507.69
2022-09-21T09:35:02.441Z,101509.19
2022-09-21T09:37:36.233Z,101506.19
2022-09-21T09:40:03.576Z,101500.13
2022-09-21T09:42:55.276Z,101503.88
2022-09-21T09:45:48.397Z,101500.63
2022-09-21T09:48:34.613Z,101491.38
2022-09-21T09:51:01.441Z,101493.00
2022-09-21T09:53:28.759Z,101492.88
2022-09-21T09:55:58.586Z,101489.59
2022-09-21T09:58:43.767Z,101479.47
2022-09-21T10:01:37.686Z,101488.94
2022-09-21T10:04:06.751Z,101478.50
2022-09-21T10:06:34.058Z,101486.50
2022-09-21T10:09:01.055Z,101476.69
2022-09-21T10:11:38.471Z,101475.97
2022-09-21T10:14:10.338Z,101475.19
2022-09-21T10:16:43.791Z,101470.56
2022-09-21T10:19:21.719Z,101472.63
2022-09-21T10:21:52.373Z,101472.56
2022-09-21T10:24:25.418Z,101470.59
2022-09-21T10:26:56.040Z,101468.50
2022-09-21T10:29:22.615Z,101467.69
2022-09-21T10:31:57.261Z,101461.75
2022-09-21T10:34:27.265Z,101462.84
2022-09-21T10:36:57.216Z,101465.50
2022-09-21T10:39:25.452Z,101457.38
2022-09-21T10:42:05.133Z,101460.53
2022-09-21T10:44:46.907Z,101449.44
2022-09-21T10:47:40.831Z,101448.09
2022-09-21T10:50:27.599Z,101445.03
2022-09-21T10:53:11.226Z,101437.78
2022-09-21T10:55:58.426Z,101440.09
2022-09-21T10:58:34.223Z,101441.88
2022-09-21T11:01:23.290Z,101436.38
2022-09-21T11:03:55.883Z,101434.84
2022-09-21T11:06:31.640Z,101434.63
2022-09-21T11:09:07.638Z,101435.81
2022-09-21T11:11:53.170Z,101438.56
2022-09-21T11:14:42.652Z,101434.75
2022-09-21T11:17:17.457Z,101433.13
2022-09-21T11:20:04.853Z,101431.53
2022-09-21T11:22:45.584Z,101422.00
2022-09-21T11:25:36.545Z,101432.44
2022-09-21T11:28:13.409Z,101421.75
2022-09-21T11:30:56.900Z,101429.22
2022-09-21T11:33:46.634Z,101422.81
2022-09-21T11:36:33.702Z,101421.25
2022-09-21T11:39:11.765Z,101423.72
2022-09-21T11:41:58.966Z,101417.13
2022-09-21T11:44:55.827Z,101421.19
2022-09-21T11:47:45.814Z,101419.16
2022-09-21T11:50:31.828Z,101415.75
2022-09-21T11:53:20.696Z,101407.47
2022-09-21T11:56:08.067Z,101404.72
2022-09-21T11:58:45.589Z,101405.53
2022-09-21T12:01:49.997Z,101409.78
2022-09-21T12:04:28.790Z,101400.63
2022-09-21T12:07:18.895Z,101402.66
2022-09-21T12:10:07.523Z,101390.25
2022-09-21T12:12:59.941Z,101387.09
2022-09-21T12:15:33.155Z,101385.66
2022-09-21T12:18:26.063Z,101382.00
2022-09-21T12:21:11.602Z,101371.88
2022-09-21T12:24:15.740Z,101373.06
2022-09-21T12:26:47.753Z,101367.69
2022-09-21T12:29:25.447Z,101371.34
2022-09-21T12:32:02.843Z,101366.44
2022-09-21T12:34:39.751Z,101343.06
2022-09-21T12:37:12.392Z,101358.72
2022-09-21T12:39:46.249Z,101355.75
2022-09-21T12:42:20.661Z,101363.06
2022-09-21T12:44:52.903Z,101355.94
2022-09-21T12:47:35.628Z,101356.38
2022-09-21T12:50:12.975Z,101352.81
2022-09-21T12:52:40.575Z,101350.66
2022-09-21T12:55:33.239Z,101350.19
2022-09-21T12:58:21.497Z,101353.72
2022-09-21T13:01:02.619Z,101345.91
2022-09-21T13:03:43.815Z,101348.22
2022-09-21T13:06:43.228Z,101345.53
2022-09-21T13:09:14.805Z,101337.84
2022-09-21T13:12:07.277Z,101343.72
2022-09-21T13:14:37.335Z,101346.50
2022-09-21T13:17:05.802Z,101340.28
2022-09-21T13:19:35.793Z,101333.00
2022-09-21T13:22:35.837Z,101333.69
2022-09-21T13:25:22.760Z,101330.16
2022-09-21T13:28:09.039Z,101329.94
2022-09-21T13:31:18.478Z,101336.19
2022-09-21T13:34:15.293Z,101332.91
2022-09-21T13:36:43.219Z,101324.25
2022-09-21T13:39:09.877Z,101326.41
2022-09-21T13:41:52.150Z,101313.09
2022-09-21T13:44:43.926Z,101317.19
2022-09-21T13:47:12.078Z,101316.94
2022-09-21T13:50:04.452Z,101313.41
2022-09-21T13:52:46.442Z,101308.81
2022-09-21T13:55:30.550Z,101306.34
2022-09-21T13:58:04.693Z,101308.53
2022-09-21T14:00:35.985Z,101296.28
2022-09-21T14:03:17.018Z,101303.38
2022-09-21T14:05:46.861Z,101292.75
2022-09-21T14:08:16.542Z,101289.44
2022-09-21T14:10:52.119Z,101292.38
2022-09-21T14:13:43.808Z,101289.44
2022-09-21T14:16:28.992Z,101293.31
2022-09-21T14:18:56.394Z,101304.16
2022-09-21T14:21:23.301Z,101299.78
2022-09-21T14:24:19.611Z,101298.06
2022-09-21T14:26:52.910Z,101298.38
2022-09-21T14:29:41.699Z,101294.53
2022-09-21T14:32:19.210Z,101289.91
2022-09-21T14:34:48.677Z,101286.06
2022-09-21T14:37:31.604Z,101289.19
2022-09-21T14:40:03.160Z,101287.88
2022-09-21T14:42:31.871Z,101286.38
2022-09-21T14:45:01.321Z,101286.22
2022-09-21T14:47:40.370Z,101289.34
2022-09-21T14:50:32.232Z,101287.06
2022-09-21T14:53:08.180Z,101280.16
2022-09-21T14:55:59.702Z,101270.25
2022-09-21T14:58:32.115Z,101271.78
2022-09-21T15:01:37.576Z,101270.50
2022-09-21T15:04:19.376Z,101264.28
2022-09-21T15:07:31.577Z,101255.69
2022-09-21T15:10:34.513Z,101252.72
2022-09-21T15:13:04.974Z,101251.94
2022-09-21T15:16:07.200Z,101258.19
2022-09-21T15:18:40.883Z,101251.13
2022-09-21T15:21:29.503Z,101252.72
2022-09-21T15:23:56.843Z,101254.38
2022-09-21T15:26:29.067Z,101250.81
2022-09-21T15:29:18.331Z,101260.03
2022-09-21T15:31:45.559Z,101256.50
2022-09-21T15:34:15.104Z,101254.31
2022-09-21T15:36:43.137Z,101253.22
2022-09-21T15:39:30.098Z,101252.66
2022-09-21T15:42:17.796Z,101254.59
2022-09-21T15:44:48.412Z,101251.03
2022-09-21T15:47:26.359Z,101248.06
2022-09-21T15:49:53.901Z,101250.72
2022-09-21T15:52:42.580Z,101247.34
2022-09-21T15:55:21.431Z,101249.66
2022-09-21T15:57:58.788Z,101245.72
2022-09-21T16:00:32.251Z,101243.94
2022-09-21T16:03:07.567Z,101251.00
2022-09-21T16:05:47.375Z,101257.75
2022-09-21T16:08:19.740Z,101257.13
2022-09-21T16:10:46.552Z,101250.13
2022-09-21T16:13:37.748Z,101258.53
2022-09-21T16:16:10.165Z,101258.47
2022-09-21T16:18:51.717Z,101257.06
2022-09-21T16:21:26.324Z,101260.59
2022-09-21T16:23:58.002Z,101266.03
2022-09-21T16:26:35.930Z,101270.06
2022-09-21T16:29:08.903Z,101266.78
2022-09-21T16:31:36.149Z,101266.75
2022-09-21T16:34:07.366Z,101268.84
2022-09-21T16:36:36.336Z,101271.91
2022-09-21T16:39:06.397Z,101268.38
2022-09-21T16:41:43.148Z,101275.09
2022-09-21T16:44:20.605Z,101270.69
2022-09-21T16:46:51.529Z,101272.38
2022-09-21T16:49:21.619Z,101278.53
2022-09-21T16:51:49.889Z,101276.94
2022-09-21T16:54:17.971Z,101281.28
2022-09-21T16:56:46.401Z,101282.91
2022-09-21T16:59:21.921Z,101276.81
2022-09-21T17:01:55.378Z,101288.13
2022-09-21T17:04:26.034Z,101284.75
2022-09-21T17:06:54.053Z,101276.94
2022-09-21T17:09:31.631Z,101284.06
2022-09-21T17:12:01.271Z,101284.34
2022-09-21T17:14:40.028Z,101285.84
2022-09-21T17:17:18.418Z,101289.94
2022-09-21T17:19:46.761Z,101285.53
2022-09-21T17:22:22.306Z,101286.22
2022-09-21T17:24:52.070Z,101291.03
2022-09-21T17:27:26.497Z,101296.69
2022-09-21T17:29:55.130Z,101294.75
2022-09-21T17:32:23.959Z,101292.28
2022-09-21T17:34:56.191Z,101287.94
2022-09-21T17:37:24.020Z,101293.50
2022-09-21T17:39:50.717Z,101297.22
2022-09-21T17:42:21.012Z,101294.19
2022-09-21T17:45:03.861Z,101298.97
2022-09-21T17:47:33.210Z,101300.59
2022-09-21T17:50:08.979Z,101293.38
2022-09-21T17:52:54.440Z,101295.59
2022-09-21T17:55:21.450Z,101298.22
2022-09-21T17:58:02.836Z,101297.72
2022-09-21T18:01:44.769Z,101301.13
2022-09-21T18:04:11.781Z,101305.75
2022-09-21T18:06:38.588Z,101308.78
2022-09-21T18:09:05.730Z,101305.38
2022-09-21T18:11:58.186Z,101304.88
2022-09-21T18:14:34.657Z,101310.50
2022-09-21T18:17:21.094Z,101320.69
2022-09-21T18:20:15.661Z,101310.38
2022-09-21T18:22:55.881Z,101313.94
2022-09-21T18:25:47.388Z,101322.66
2022-09-21T18:28:33.256Z,101318.31
2022-09-21T18:31:15.732Z,101321.75
2022-09-21T18:33:49.088Z,101321.25
2022-09-21T18:36:26.852Z,101327.31
2022-09-21T18:39:01.584Z,101324.03
2022-09-21T18:41:46.107Z,101324.88
2022-09-21T18:44:26.950Z,101323.22
2022-09-21T18:47:27.863Z,101326.53
2022-09-21T18:50:20.821Z,101327.97
2022-09-21T18:53:02.601Z,101331.03
2022-09-21T18:55:33.006Z,101333.50
2022-09-21T18:58:00.885Z,101332.56
2022-09-21T19:00:32.784Z,101328.19
2022-09-21T19:03:23.612Z,101331.78
2022-09-21T19:06:17.830Z,101325.97
2022-09-21T19:09:12.542Z,101332.13
2022-09-21T19:11:45.287Z,101332.69
2022-09-21T19:14:32.276Z,101332.78
2022-09-21T19:17:13.809Z,101340.25
2022-09-21T19:20:00.791Z,101337.72
2022-09-21T19:22:40.598Z,101333.69
2022-09-21T19:25:34.159Z,101335.09
2022-09-21T19:28:22.049Z,101331.06
2022-09-21T19:30:58.295Z,101341.00
2022-09-21T19:33:49.421Z,101346.31
2022-09-21T19:36:17.440Z,101345.34
2022-09-21T19:38:44.445Z,101338.69
2022-09-21T19:41:28.962Z,101343.94
2022-09-21T19:44:45.521Z,101337.22
2022-09-21T19:47:19.214Z,101338.84
2022-09-21T19:49:54.311Z,101335.81
2022-09-21T19:52:30.662Z,101348.28
2022-09-21T19:55:16.650Z,101334.78
2022-09-21T19:58:02.368Z,101337.22
2022-09-21T20:00:29.454Z,101334.75
2022-09-21T20:03:04.839Z,101335.97
2022-09-21T20:05:47.643Z,101346.47
2022-09-21T20:08:24.809Z,101340.81
2022-09-21T20:11:07.612Z,101336.22
2022-09-21T20:13:40.688Z,101335.34
2022-09-21T20:16:43.845Z,101323.09
2022-09-21T20:19:36.447Z,101331.47
2022-09-21T20:22:11.156Z,101332.69
2022-09-21T20:24:59.885Z,101342.38
2022-09-21T20:27:40.036Z,101337.03
2022-09-21T20:30:15.565Z,101338.09
2022-09-21T20:32:45.923Z,101334.94
2022-09-21T20:35:20.261Z,101333.88
2022-09-21T20:37:47.271Z,101344.41
2022-09-21T20:40:15.440Z,101338.25
2022-09-21T20:42:42.473Z,101336.66
2022-09-21T20:45:14.094Z,101343.34
2022-09-21T20:47:40.826Z,101340.38
2022-09-21T20:50:12.693Z,101339.56
2022-09-21T20:52:41.428Z,101334.44
2022-09-21T20:55:10.837Z,101337.91
2022-09-21T20:57:37.518Z,101338.00
2022-09-21T21:00:06.992Z,101330.78
2022-09-21T21:02:34.324Z,101328.63
2022-09-21T21:05:01.041Z,101335.31
2022-09-21T21:07:30.497Z,101328.50
2022-09-21T21:09:58.725Z,101335.09
2022-09-21T21:12:26.201Z,101326.88
2022-09-21T21:14:53.016Z,101337.91
2022-09-21T21:17:20.003Z,101336.66
2022-09-21T21:19:46.621Z,101325.97
2022-09-21T21:22:13.752Z,101330.72
2022-09-21T21:24:41.973Z,101334.25
2022-09-21T21:27:16.332Z,101325.03
2022-09-21T21:29:50.054Z,101322.66
2022-09-21T21:32:23.750Z,101329.09
2022-09-21T21:34:52.653Z,101327.81
2022-09-21T21:37:21.746Z,101332.50
2022-09-21T21:39:48.390Z,101321.50
2022-09-21T21:42:15.593Z,101331.69
2022-09-21T21:44:42.399Z,101319.50
2022-09-21T21:47:37.761Z,101316.34
2022-09-21T21:49:57.206Z,101322.19
2022-09-21T21:52:23.950Z,101307.50
2022-09-21T21:54:50.832Z,101316.31
2022-09-21T21:57:17.485Z,101311.88
2022-09-21T21:59:44.487Z,101315.88
2022-09-21T22:02:11.473Z,101312.81
2022-09-21T22:04:38.716Z,101319.88
2022-09-21T22:07:05.824Z,101321.16
2022-09-21T22:09:32.837Z,101316.06
2022-09-21T22:12:01.905Z,101320.31
2022-09-21T22:14:28.861Z,101317.50
2022-09-21T22:16:55.804Z,101312.44
2022-09-21T22:19:22.469Z,101313.63
2022-09-21T22:21:53.806Z,101311.34
2022-09-21T22:24:21.720Z,101321.69
2022-09-21T22:26:48.713Z,101314.72
2022-09-21T22:29:17.218Z,101308.88
2022-09-21T22:31:49.603Z,101310.97
2022-09-21T22:34:16.921Z,101312.25
2022-09-21T22:36:44.077Z,101315.84
2022-09-21T22:39:12.173Z,101315.69
2022-09-21T22:41:41.333Z,101313.91
2022-09-21T22:44:08.943Z,101315.38
2022-09-21T22:46:36.649Z,101313.97
2022-09-21T22:49:03.875Z,101313.28
2022-09-21T22:51:30.793Z,101308.38
2022-09-21T22:53:57.967Z,101314.81
2022-09-21T22:56:27.220Z,101308.59
2022-09-21T22:58:56.015Z,101311.53
2022-09-21T23:01:25.870Z,101312.59
2022-09-21T23:03:55.796Z,101312.03
2022-09-21T23:06:26.570Z,101310.44
2022-09-21T23:08:56.183Z,101312.72
2022-09-21T23:11:31.714Z,101314.44
2022-09-21T23:13:59.341Z,101306.34
2022-09-21T23:16:27.960Z,101307.31
2022-09-21T23:18:54.857Z,101312.22
2022-09-21T23:21:24.690Z,101297.19
2022-09-21T23:23:59.863Z,101301.75
2022-09-21T23:26:28.459Z,101294.25
2022-09-21T23:29:00.489Z,101301.63
2022-09-21T23:31:28.299Z,101296.22
2022-09-21T23:33:57.753Z,101294.59
2022-09-21T23:36:27.769Z,101293.47
2022-09-21T23:38:55.184Z,101297.19
2022-09-21T23:41:27.066Z,101298.69
2022-09-21T23:43:54.476Z,101298.44
2022-09-21T23:46:24.470Z,101301.84
2022-09-21T23:48:51.736Z,101300.53
2022-09-21T23:51:18.715Z,101299.25
2022-09-21T23:53:46.035Z,101294.03
2022-09-21T23:56:18.008Z,101296.47
2022-09-21T23:58:45.468Z,101296.00
